sensor_id;sensor_type;location;lat;lon;timestamp;pressure;altitude;pressure_sealevel;temperature;humidity
79077;BME280;68477;42.698;23.342;2023-11-18T00:00:31;94691.69;;;6.73;84.61
79077;BME280;68477;42.698;23.342;2023-11-18T00:02:57;94695.44;;;6.87;83.50
79077;BME280;68477;42.698;23.342;2023-11-18T00:05:22;94686.63;;;6.88;83.30
79077;BME280;68477;42.698;23.342;2023-11-18T00:07:49;94689.72;;;6.75;81.87
79077;BME280;68477;42.698;23.342;2023-11-18T00:10:15;94691.88;;;6.80;83.05
79077;BME280;68477;42.698;23.342;2023-11-18T00:12:40;94690.69;;;6.50;83.61
79077;BME280;68477;42.698;23.342;2023-11-18T00:15:07;94676.16;;;6.55;83.73
79077;BME280;68477;42.698;23.342;2023-11-18T00:17:39;94686.13;;;6.76;82.07
79077;BME280;68477;42.698;23.342;2023-11-18T00:20:06;94717.78;;;6.49;83.11
79077;BME280;68477;42.698;23.342;2023-11-18T00:22:38;94722.03;;;6.50;81.02
79077;BME280;68477;42.698;23.342;2023-11-18T00:25:05;94720.19;;;6.34;82.48
79077;BME280;68477;42.698;23.342;2023-11-18T00:27:33;94710.88;;;6.31;83.02
79077;BME280;68477;42.698;23.342;2023-11-18T00:30:01;94697.97;;;6.22;83.32
79077;BME280;68477;42.698;23.342;2023-11-18T00:32:27;94684.59;;;6.33;83.01
79077;BME280;68477;42.698;23.342;2023-11-18T00:34:53;94688.22;;;6.40;81.90
79077;BME280;68477;42.698;23.342;2023-11-18T00:37:18;94688.72;;;6.35;82.35
79077;BME280;68477;42.698;23.342;2023-11-18T00:39:44;94687.22;;;6.33;82.94
79077;BME280;68477;42.698;23.342;2023-11-18T00:42:09;94686.56;;;6.31;82.84
79077;BME280;68477;42.698;23.342;2023-11-18T00:44:36;94691.47;;;6.26;81.51
79077;BME280;68477;42.698;23.342;2023-11-18T00:47:01;94693.72;;;6.12;83.50
79077;BME280;68477;42.698;23.342;2023-11-18T00:49:27;94679.03;;;6.20;83.94
79077;BME280;68477;42.698;23.342;2023-11-18T00:51:53;94684.09;;;6.13;81.65
79077;BME280;68477;42.698;23.342;2023-11-18T00:54:18;94691.75;;;6.15;82.42
79077;BME280;68477;42.698;23.342;2023-11-18T00:56:44;94687.53;;;6.22;82.23
79077;BME280;68477;42.698;23.342;2023-11-18T00:59:10;94694.66;;;6.11;83.20
79077;BME280;68477;42.698;23.342;2023-11-18T01:01:35;94690.59;;;6.09;81.50
79077;BME280;68477;42.698;23.342;2023-11-18T01:04:02;94699.25;;;6.09;83.60
79077;BME280;68477;42.698;23.342;2023-11-18T01:06:27;94691.06;;;5.70;83.42
79077;BME280;68477;42.698;23.342;2023-11-18T01:08:53;94704.66;;;6.16;81.60
79077;BME280;68477;42.698;23.342;2023-11-18T01:11:19;94707.44;;;6.15;82.44
79077;BME280;68477;42.698;23.342;2023-11-18T01:13:49;94711.03;;;5.79;83.20
79077;BME280;68477;42.698;23.342;2023-11-18T01:16:14;94708.03;;;6.08;83.56
79077;BME280;68477;42.698;23.342;2023-11-18T01:18:41;94716.38;;;6.04;83.53
79077;BME280;68477;42.698;23.342;2023-11-18T01:21:06;94720.44;;;6.06;83.11
79077;BME280;68477;42.698;23.342;2023-11-18T01:23:35;94729.16;;;5.89;83.94
79077;BME280;68477;42.698;23.342;2023-11-18T01:26:02;94722.41;;;6.04;83.64
79077;BME280;68477;42.698;23.342;2023-11-18T01:28:30;94728.06;;;6.00;82.69
79077;BME280;68477;42.698;23.342;2023-11-18T01:30:56;94727.66;;;6.12;82.07
79077;BME280;68477;42.698;23.342;2023-11-18T01:33:22;94720.78;;;6.03;83.86
79077;BME280;68477;42.698;23.342;2023-11-18T01:35:49;94724.34;;;5.76;84.72
79077;BME280;68477;42.698;23.342;2023-11-18T01:38:14;94741.09;;;5.66;84.95
79077;BME280;68477;42.698;23.342;2023-11-18T01:40:40;94725.16;;;5.77;83.70
79077;BME280;68477;42.698;23.342;2023-11-18T01:43:09;94721.47;;;5.88;82.75
79077;BME280;68477;42.698;23.342;2023-11-18T01:45:37;94720.75;;;5.69;83.17
79077;BME280;68477;42.698;23.342;2023-11-18T01:48:04;94711.47;;;5.75;81.92
79077;BME280;68477;42.698;23.342;2023-11-18T01:50:31;94720.09;;;5.75;82.86
79077;BME280;68477;42.698;23.342;2023-11-18T01:52:56;94724.50;;;5.67;82.04
79077;BME280;68477;42.698;23.342;2023-11-18T01:55:22;94717.44;;;5.59;83.18
79077;BME280;68477;42.698;23.342;2023-11-18T01:57:47;94716.00;;;5.39;82.90
79077;BME280;68477;42.698;23.342;2023-11-18T02:00:13;94704.81;;;5.46;82.14
79077;BME280;68477;42.698;23.342;2023-11-18T02:02:42;94708.59;;;5.52;81.12
79077;BME280;68477;42.698;23.342;2023-11-18T02:05:08;94713.03;;;5.60;82.13
79077;BME280;68477;42.698;23.342;2023-11-18T02:07:37;94718.63;;;5.39;80.81
79077;BME280;68477;42.698;23.342;2023-11-18T02:10:04;94719.75;;;5.36;80.80
79077;BME280;68477;42.698;23.342;2023-11-18T02:12:43;94721.66;;;5.08;82.18
79077;BME280;68477;42.698;23.342;2023-11-18T02:15:10;94722.44;;;5.26;82.10
79077;BME280;68477;42.698;23.342;2023-11-18T02:17:38;94722.84;;;5.40;79.22
79077;BME280;68477;42.698;23.342;2023-11-18T02:20:08;94718.00;;;5.19;79.77
79077;BME280;68477;42.698;23.342;2023-11-18T02:22:44;94719.38;;;5.31;80.57
79077;BME280;68477;42.698;23.342;2023-11-18T02:25:17;94725.72;;;5.29;79.22
79077;BME280;68477;42.698;23.342;2023-11-18T02:27:46;94724.91;;;5.28;79.22
79077;BME280;68477;42.698;23.342;2023-11-18T02:30:13;94700.94;;;4.99;79.22
79077;BME280;68477;42.698;23.342;2023-11-18T02:32:49;94703.72;;;5.05;80.38
79077;BME280;68477;42.698;23.342;2023-11-18T02:35:40;94716.66;;;5.15;77.45
79077;BME280;68477;42.698;23.342;2023-11-18T02:38:08;94718.56;;;4.87;78.89
79077;BME280;68477;42.698;23.342;2023-11-18T02:40:39;94716.81;;;4.87;78.85
79077;BME280;68477;42.698;23.342;2023-11-18T02:43:06;94735.09;;;4.95;78.60
79077;BME280;68477;42.698;23.342;2023-11-18T02:45:35;94737.56;;;4.79;79.67
79077;BME280;68477;42.698;23.342;2023-11-18T02:48:01;94739.50;;;4.77;79.72
79077;BME280;68477;42.698;23.342;2023-11-18T02:50:27;94738.06;;;4.83;78.63
79077;BME280;68477;42.698;23.342;2023-11-18T02:52:56;94733.59;;;4.75;78.45
79077;BME280;68477;42.698;23.342;2023-11-18T02:55:21;94736.22;;;4.57;79.00
79077;BME280;68477;42.698;23.342;2023-11-18T02:57:48;94740.09;;;4.71;79.22
79077;BME280;68477;42.698;23.342;2023-11-18T03:00:15;94732.13;;;4.73;79.48
79077;BME280;68477;42.698;23.342;2023-11-18T03:02:44;94740.53;;;4.49;78.31
79077;BME280;68477;42.698;23.342;2023-11-18T03:05:12;94751.31;;;4.72;78.39
79077;BME280;68477;42.698;23.342;2023-11-18T03:07:40;94746.19;;;4.44;78.23
79077;BME280;68477;42.698;23.342;2023-11-18T03:10:06;94749.09;;;4.59;77.82
79077;BME280;68477;42.698;23.342;2023-11-18T03:12:41;94753.13;;;4.71;77.59
79077;BME280;68477;42.698;23.342;2023-11-18T03:15:07;94763.06;;;4.40;78.89
79077;BME280;68477;42.698;23.342;2023-11-18T03:17:36;94771.06;;;4.29;79.04
79077;BME280;68477;42.698;23.342;2023-11-18T03:20:04;94772.22;;;4.44;78.60
79077;BME280;68477;42.698;23.342;2023-11-18T03:22:34;94789.28;;;4.29;79.50
79077;BME280;68477;42.698;23.342;2023-11-18T03:24:59;94792.44;;;4.50;78.99
79077;BME280;68477;42.698;23.342;2023-11-18T03:27:25;94789.44;;;4.27;79.25
79077;BME280;68477;42.698;23.342;2023-11-18T03:29:50;94789.28;;;4.29;78.58
79077;BME280;68477;42.698;23.342;2023-11-18T03:32:16;94787.22;;;4.32;77.95
79077;BME280;68477;42.698;23.342;2023-11-18T03:34:41;94783.34;;;4.36;78.51
79077;BME280;68477;42.698;23.342;2023-11-18T03:37:07;94787.75;;;4.36;77.28
79077;BME280;68477;42.698;23.342;2023-11-18T03:39:32;94781.78;;;4.26;76.77
79077;BME280;68477;42.698;23.342;2023-11-18T03:41:58;94796.75;;;4.14;78.24
79077;BME280;68477;42.698;23.342;2023-11-18T03:44:23;94789.28;;;4.29;77.54
79077;BME280;68477;42.698;23.342;2023-11-18T03:46:51;94809.44;;;4.27;76.87
79077;BME280;68477;42.698;23.342;2023-11-18T03:49:17;94798.59;;;4.31;75.91
79077;BME280;68477;42.698;23.342;2023-11-18T03:51:44;94802.91;;;4.23;76.27
79077;BME280;68477;42.698;23.342;2023-11-18T03:54:10;94792.91;;;3.91;77.97
79077;BME280;68477;42.698;23.342;2023-11-18T03:56:35;94784.63;;;4.05;77.31
79077;BME280;68477;42.698;23.342;2023-11-18T03:59:01;94789.16;;;4.03;76.48
79077;BME280;68477;42.698;23.342;2023-11-18T04:01:26;94784.63;;;4.05;76.41
79077;BME280;68477;42.698;23.342;2023-11-18T04:03:53;94787.75;;;4.08;75.80
79077;BME280;68477;42.698;23.342;2023-11-18T04:06:20;94788.06;;;3.96;76.42
79077;BME280;68477;42.698;23.342;2023-11-18T04:08:47;94791.94;;;3.92;74.53
79077;BME280;68477;42.698;23.342;2023-11-18T04:11:13;94791.78;;;3.93;76.11
79077;BME280;68477;42.698;23.342;2023-11-18T04:13:42;94803.59;;;3.88;75.88
79077;BME280;68477;42.698;23.342;2023-11-18T04:16:14;94801.03;;;4.05;74.62
79077;BME280;68477;42.698;23.342;2023-11-18T04:18:43;94813.00;;;3.98;74.91
79077;BME280;68477;42.698;23.342;2023-11-18T04:21:11;94803.16;;;3.92;74.05
79077;BME280;68477;42.698;23.342;2023-11-18T04:23:39;94805.34;;;3.97;74.92
79077;BME280;68477;42.698;23.342;2023-11-18T04:26:05;94802.00;;;4.04;74.76
79077;BME280;68477;42.698;23.342;2023-11-18T04:28:32;94809.22;;;3.73;75.23
79077;BME280;68477;42.698;23.342;2023-11-18T04:30:58;94810.59;;;3.77;75.25
79077;BME280;68477;42.698;23.342;2023-11-18T04:33:24;94813.00;;;3.98;74.25
79077;BME280;68477;42.698;23.342;2023-11-18T04:35:50;94813.31;;;3.86;75.04
79077;BME280;68477;42.698;23.342;2023-11-18T04:38:16;94810.75;;;3.76;77.41
79077;BME280;68477;42.698;23.342;2023-11-18T04:40:42;94825.31;;;3.49;76.87
79077;BME280;68477;42.698;23.342;2023-11-18T04:43:10;94823.09;;;3.74;75.31
79077;BME280;68477;42.698;23.342;2023-11-18T04:45:36;94824.72;;;3.75;76.45
79077;BME280;68477;42.698;23.342;2023-11-18T04:48:03;94821.88;;;3.96;74.70
79077;BME280;68477;42.698;23.342;2023-11-18T04:50:29;94824.94;;;3.91;74.55
79077;BME280;68477;42.698;23.342;2023-11-18T04:52:55;94820.97;;;3.87;74.83
79077;BME280;68477;42.698;23.342;2023-11-18T04:55:21;94826.38;;;4.03;73.89
79077;BME280;68477;42.698;23.342;2023-11-18T04:57:47;94821.38;;;3.92;74.25
79077;BME280;68477;42.698;23.342;2023-11-18T05:00:14;94817.13;;;3.91;73.37
79077;BME280;68477;42.698;23.342;2023-11-18T05:02:43;94815.97;;;4.03;74.32
79077;BME280;68477;42.698;23.342;2023-11-18T05:05:09;94813.44;;;3.84;74.38
79077;BME280;68477;42.698;23.342;2023-11-18T05:07:36;94810.13;;;3.55;74.76
79077;BME280;68477;42.698;23.342;2023-11-18T05:10:03;94806.75;;;3.82;74.51
79077;BME280;68477;42.698;23.342;2023-11-18T05:12:30;94804.09;;;3.64;75.36
79077;BME280;68477;42.698;23.342;2023-11-18T05:14:57;94801.81;;;3.88;74.64
79077;BME280;68477;42.698;23.342;2023-11-18T05:17:23;94803.03;;;3.84;73.70
79077;BME280;68477;42.698;23.342;2023-11-18T05:19:50;94802.16;;;4.03;73.80
79077;BME280;68477;42.698;23.342;2023-11-18T05:22:16;94808.63;;;3.99;74.36
79077;BME280;68477;42.698;23.342;2023-11-18T05:24:41;94812.63;;;3.84;73.40
79077;BME280;68477;42.698;23.342;2023-11-18T05:27:06;94796.75;;;3.87;72.69
79077;BME280;68477;42.698;23.342;2023-11-18T05:29:32;94786.78;;;3.72;73.88
79077;BME280;68477;42.698;23.342;2023-11-18T05:31:58;94788.25;;;3.38;73.40
79077;BME280;68477;42.698;23.342;2023-11-18T05:34:24;94796.28;;;3.64;73.71
79077;BME280;68477;42.698;23.342;2023-11-18T05:36:50;94801.53;;;3.25;75.19
79077;BME280;68477;42.698;23.342;2023-11-18T05:39:20;94793.44;;;3.38;74.22
79077;BME280;68477;42.698;23.342;2023-11-18T05:41:47;94803.53;;;3.50;75.65
79077;BME280;68477;42.698;23.342;2023-11-18T05:44:16;94818.22;;;3.42;74.63
79077;BME280;68477;42.698;23.342;2023-11-18T05:46:47;94823.50;;;3.60;73.81
79077;BME280;68477;42.698;23.342;2023-11-18T05:49:13;94810.09;;;3.64;74.11
79077;BME280;68477;42.698;23.342;2023-11-18T05:51:39;94820.66;;;3.63;74.35
79077;BME280;68477;42.698;23.342;2023-11-18T05:54:07;94824.88;;;3.64;73.67
79077;BME280;68477;42.698;23.342;2023-11-18T05:56:33;94813.38;;;3.66;73.99
79077;BME280;68477;42.698;23.342;2023-11-18T05:58:58;94807.91;;;3.60;72.89
79077;BME280;68477;42.698;23.342;2023-11-18T06:01:24;94800.91;;;3.70;72.95
79077;BME280;68477;42.698;23.342;2023-11-18T06:03:52;94815.47;;;3.53;73.32
79077;BME280;68477;42.698;23.342;2023-11-18T06:06:18;94809.00;;;3.57;73.38
79077;BME280;68477;42.698;23.342;2023-11-18T06:08:45;94813.34;;;3.76;74.31
79077;BME280;68477;42.698;23.342;2023-11-18T06:11:13;94821.34;;;3.45;75.09
79077;BME280;68477;42.698;23.342;2023-11-18T06:16:09;94820.34;;;3.66;74.18
79077;BME280;68477;42.698;23.342;2023-11-18T06:18:34;94822.44;;;3.53;76.40
79077;BME280;68477;42.698;23.342;2023-11-18T06:21:01;94823.94;;;3.55;76.53
79077;BME280;68477;42.698;23.342;2023-11-18T06:23:27;94827.91;;;3.49;76.03
79077;BME280;68477;42.698;23.342;2023-11-18T06:25:52;94825.88;;;3.43;75.22
79077;BME280;68477;42.698;23.342;2023-11-18T06:28:17;94826.41;;;3.37;75.38
79077;BME280;68477;42.698;23.342;2023-11-18T06:30:43;94815.72;;;3.50;74.87
79077;BME280;68477;42.698;23.342;2023-11-18T06:33:09;94810.13;;;3.45;75.78
79077;BME280;68477;42.698;23.342;2023-11-18T06:35:34;94812.91;;;3.34;75.99
79077;BME280;68477;42.698;23.342;2023-11-18T06:38:00;94820.66;;;3.53;73.88
79077;BME280;68477;42.698;23.342;2023-11-18T06:40:25;94826.09;;;3.60;74.66
79077;BME280;68477;42.698;23.342;2023-11-18T06:42:52;94830.53;;;3.40;75.26
79077;BME280;68477;42.698;23.342;2023-11-18T06:45:19;94830.63;;;3.58;74.46
79077;BME280;68477;42.698;23.342;2023-11-18T06:47:47;94825.88;;;3.43;74.35
79077;BME280;68477;42.698;23.342;2023-11-18T06:50:14;94831.28;;;3.69;73.08
79077;BME280;68477;42.698;23.342;2023-11-18T06:52:41;94838.97;;;3.61;72.62
79077;BME280;68477;42.698;23.342;2023-11-18T06:55:10;94842.19;;;3.83;72.44
79077;BME280;68477;42.698;23.342;2023-11-18T06:57:36;94847.19;;;3.66;73.85
79077;BME280;68477;42.698;23.342;2023-11-18T07:00:02;94838.53;;;3.85;72.30
79077;BME280;68477;42.698;23.342;2023-11-18T07:02:33;94840.72;;;3.80;71.79
79077;BME280;68477;42.698;23.342;2023-11-18T07:04:59;94840.28;;;3.85;72.97
79077;BME280;68477;42.698;23.342;2023-11-18T07:07:24;94846.72;;;3.80;73.70
79077;BME280;68477;42.698;23.342;2023-11-18T07:09:50;94849.56;;;3.40;74.32
79077;BME280;68477;42.698;23.342;2023-11-18T07:12:17;94867.56;;;3.71;72.79
79077;BME280;68477;42.698;23.342;2023-11-18T07:14:44;94857.44;;;3.58;72.57
79077;BME280;68477;42.698;23.342;2023-11-18T07:17:10;94850.59;;;3.67;74.42
79077;BME280;68477;42.698;23.342;2023-11-18T07:19:35;94861.16;;;3.36;73.73
79077;BME280;68477;42.698;23.342;2023-11-18T07:22:01;94853.75;;;3.51;73.66
79077;BME280;68477;42.698;23.342;2023-11-18T07:24:27;94851.72;;;3.45;74.51
79077;BME280;68477;42.698;23.342;2023-11-18T07:26:55;94863.22;;;3.52;73.27
79077;BME280;68477;42.698;23.342;2023-11-18T07:29:20;94864.28;;;3.49;73.52
79077;BME280;68477;42.698;23.342;2023-11-18T07:31:48;94870.88;;;3.44;74.32
79077;BME280;68477;42.698;23.342;2023-11-18T07:34:14;94860.19;;;3.66;72.83
79077;BME280;68477;42.698;23.342;2023-11-18T07:36:40;94863.06;;;3.54;74.36
79077;BME280;68477;42.698;23.342;2023-11-18T07:39:05;94873.19;;;3.37;74.06
79077;BME280;68477;42.698;23.342;2023-11-18T07:41:41;94869.25;;;3.43;72.98
79077;BME280;68477;42.698;23.342;2023-11-18T07:44:07;94869.09;;;3.64;72.58
79077;BME280;68477;42.698;23.342;2023-11-18T07:46:37;94865.81;;;3.52;73.30
79077;BME280;68477;42.698;23.342;2023-11-18T07:49:04;94876.03;;;3.73;73.91
79077;BME280;68477;42.698;23.342;2023-11-18T07:51:29;94849.66;;;3.48;72.76
79077;BME280;68477;42.698;23.342;2023-11-18T07:53:55;94851.72;;;3.55;73.19
79077;BME280;68477;42.698;23.342;2023-11-18T07:56:21;94833.53;;;3.55;73.76
79077;BME280;68477;42.698;23.342;2023-11-18T07:58:49;94864.00;;;3.62;72.26
79077;BME280;68477;42.698;23.342;2023-11-18T08:01:17;94865.41;;;3.37;72.89
79077;BME280;68477;42.698;23.342;2023-11-18T08:03:43;94869.09;;;3.44;73.33
79077;BME280;68477;42.698;23.342;2023-11-18T08:06:10;94871.41;;;3.57;73.61
79077;BME280;68477;42.698;23.342;2023-11-18T08:08:37;94863.31;;;3.60;73.37
79077;BME280;68477;42.698;23.342;2023-11-18T08:11:04;94878.66;;;3.63;73.50
79077;BME280;68477;42.698;23.342;2023-11-18T08:13:30;94874.56;;;3.51;72.77
79077;BME280;68477;42.698;23.342;2023-11-18T08:15:56;94887.16;;;3.65;72.07
79077;BME280;68477;42.698;23.342;2023-11-18T08:18:23;94876.47;;;3.59;72.13
79077;BME280;68477;42.698;23.342;2023-11-18T08:20:49;94868.50;;;3.70;70.54
79077;BME280;68477;42.698;23.342;2023-11-18T08:23:15;94885.66;;;3.53;71.28
79077;BME280;68477;42.698;23.342;2023-11-18T08:25:40;94885.66;;;3.53;72.13
79077;BME280;68477;42.698;23.342;2023-11-18T08:28:07;94859.81;;;3.42;72.11
79077;BME280;68477;42.698;23.342;2023-11-18T08:30:34;94881.13;;;3.45;72.32
79077;BME280;68477;42.698;23.342;2023-11-18T08:32:59;94881.81;;;3.47;72.92
79077;BME280;68477;42.698;23.342;2023-11-18T08:35:25;94880.16;;;3.66;72.21
79077;BME280;68477;42.698;23.342;2023-11-18T08:37:50;94885.53;;;3.35;71.58
79077;BME280;68477;42.698;23.342;2023-11-18T08:40:17;94887.38;;;3.82;71.34
79077;BME280;68477;42.698;23.342;2023-11-18T08:42:51;94874.16;;;3.65;71.64
79077;BME280;68477;42.698;23.342;2023-11-18T08:45:23;94889.19;;;3.62;72.06
79077;BME280;68477;42.698;23.342;2023-11-18T08:47:59;94895.03;;;3.83;71.90
79077;BME280;68477;42.698;23.342;2023-11-18T08:50:27;94895.75;;;3.75;71.24
79077;BME280;68477;42.698;23.342;2023-11-18T08:52:53;94898.63;;;3.72;70.95
79077;BME280;68477;42.698;23.342;2023-11-18T08:55:29;94893.84;;;3.68;70.56
79077;BME280;68477;42.698;23.342;2023-11-18T08:58:07;94900.41;;;3.72;70.93
79077;BME280;68477;42.698;23.342;2023-11-18T09:00:55;94892.19;;;3.67;70.56
79077;BME280;68477;42.698;23.342;2023-11-18T09:03:26;94889.59;;;3.67;71.83
79077;BME280;68477;42.698;23.342;2023-11-18T09:06:06;94888.66;;;3.68;71.63
79077;BME280;68477;42.698;23.342;2023-11-18T09:08:43;94890.00;;;3.62;71.67
79077;BME280;68477;42.698;23.342;2023-11-18T09:11:12;94873.88;;;3.59;72.15
79077;BME280;68477;42.698;23.342;2023-11-18T09:13:44;94893.44;;;3.63;71.38
79077;BME280;68477;42.698;23.342;2023-11-18T09:16:19;94897.94;;;3.61;71.13
79077;BME280;68477;42.698;23.342;2023-11-18T09:18:50;94900.56;;;3.51;71.64
79077;BME280;68477;42.698;23.342;2023-11-18T09:21:16;94896.31;;;3.50;71.38
79077;BME280;68477;42.698;23.342;2023-11-18T09:23:45;94891.78;;;3.71;72.07
79077;BME280;68477;42.698;23.342;2023-11-18T09:26:13;94886.59;;;3.62;71.72
79077;BME280;68477;42.698;23.342;2023-11-18T09:28:39;94876.31;;;3.70;71.85
79077;BME280;68477;42.698;23.342;2023-11-18T09:31:06;94876.59;;;3.67;70.64
79077;BME280;68477;42.698;23.342;2023-11-18T09:33:33;94878.69;;;3.44;71.46
79077;BME280;68477;42.698;23.342;2023-11-18T09:36:02;94883.47;;;3.39;72.11
79077;BME280;68477;42.698;23.342;2023-11-18T09:38:29;94887.44;;;3.53;72.18
79077;BME280;68477;42.698;23.342;2023-11-18T09:40:56;94881.53;;;3.60;70.37
79077;BME280;68477;42.698;23.342;2023-11-18T09:43:24;94872.22;;;3.58;71.05
79077;BME280;68477;42.698;23.342;2023-11-18T09:45:54;94868.28;;;3.44;70.93
79077;BME280;68477;42.698;23.342;2023-11-18T09:48:21;94881.53;;;3.60;71.90
79077;BME280;68477;42.698;23.342;2023-11-18T09:50:57;94877.97;;;3.61;71.28
79077;BME280;68477;42.698;23.342;2023-11-18T09:53:25;94880.56;;;3.71;71.26
79077;BME280;68477;42.698;23.342;2023-11-18T09:56:09;94864.72;;;3.35;70.75
79077;BME280;68477;42.698;23.342;2023-11-18T09:58:48;94870.06;;;3.63;69.87
79077;BME280;68477;42.698;23.342;2023-11-18T10:01:18;94866.44;;;3.73;71.38
79077;BME280;68477;42.698;23.342;2023-11-18T10:03:45;94870.97;;;3.62;71.30
79077;BME280;68477;42.698;23.342;2023-11-18T10:06:12;94868.13;;;3.55;71.46
79077;BME280;68477;42.698;23.342;2023-11-18T10:08:41;94863.06;;;3.63;69.85
79077;BME280;68477;42.698;23.342;2023-11-18T10:11:12;94868.66;;;3.68;69.57
79077;BME280;68477;42.698;23.342;2023-11-18T10:13:39;94877.13;;;3.70;70.95
79077;BME280;68477;42.698;23.342;2023-11-18T10:16:07;94870.72;;;3.55;72.03
79077;BME280;68477;42.698;23.342;2023-11-18T10:18:33;94866.59;;;3.62;70.55
79077;BME280;68477;42.698;23.342;2023-11-18T10:21:02;94873.19;;;3.57;70.45
79077;BME280;68477;42.698;23.342;2023-11-18T10:23:29;94876.31;;;3.70;71.12
79077;BME280;68477;42.698;23.342;2023-11-18T10:25:59;94873.03;;;3.77;69.87
79077;BME280;68477;42.698;23.342;2023-11-18T10:30:56;94894.94;;;3.65;70.08
79077;BME280;68477;42.698;23.342;2023-11-18T10:33:33;94867.84;;;3.58;69.87
79077;BME280;68477;42.698;23.342;2023-11-18T10:36:01;94889.63;;;3.57;69.54
79077;BME280;68477;42.698;23.342;2023-11-18T10:38:31;94895.75;;;3.75;68.71
79077;BME280;68477;42.698;23.342;2023-11-18T10:40:58;94887.16;;;3.65;70.11
79077;BME280;68477;42.698;23.342;2023-11-18T10:43:26;94885.06;;;3.78;69.70
79077;BME280;68477;42.698;23.342;2023-11-18T10:46:07;94874.94;;;3.75;69.01
79077;BME280;68477;42.698;23.342;2023-11-18T10:48:48;94882.19;;;3.82;69.55
79077;BME280;68477;42.698;23.342;2023-11-18T10:51:18;94875.94;;;3.65;70.39
79077;BME280;68477;42.698;23.342;2023-11-18T10:53:52;94896.44;;;3.77;68.70
79077;BME280;68477;42.698;23.342;2023-11-18T10:56:26;94876.84;;;3.73;69.69
79077;BME280;68477;42.698;23.342;2023-11-18T10:59:05;94879.06;;;3.68;69.58
79077;BME280;68477;42.698;23.342;2023-11-18T11:01:34;94886.75;;;3.41;69.47
79077;BME280;68477;42.698;23.342;2023-11-18T11:04:04;94884.41;;;3.67;69.75
79077;BME280;68477;42.698;23.342;2023-11-18T11:06:44;94876.88;;;3.64;70.00
79077;BME280;68477;42.698;23.342;2023-11-18T11:09:18;94865.00;;;3.52;70.28
79077;BME280;68477;42.698;23.342;2023-11-18T11:11:49;94862.94;;;3.45;70.26
79077;BME280;68477;42.698;23.342;2023-11-18T11:14:15;94867.03;;;3.48;70.70
79077;BME280;68477;42.698;23.342;2023-11-18T11:16:52;94858.81;;;3.62;69.34
79077;BME280;68477;42.698;23.342;2023-11-18T11:19:30;94883.84;;;3.73;69.34
79077;BME280;68477;42.698;23.342;2023-11-18T11:22:07;94873.47;;;3.54;69.46
79077;BME280;68477;42.698;23.342;2023-11-18T11:27:46;94865.78;;;3.62;69.97
79077;BME280;68477;42.698;23.342;2023-11-18T11:30:24;94875.81;;;3.47;70.50
79077;BME280;68477;42.698;23.342;2023-11-18T11:35:42;94886.47;;;3.54;70.09
79077;BME280;68477;42.698;23.342;2023-11-18T11:38:15;94855.81;;;3.67;68.67
79077;BME280;68477;42.698;23.342;2023-11-18T11:40:42;94851.69;;;3.74;69.41
79077;BME280;68477;42.698;23.342;2023-11-18T11:43:09;94855.78;;;3.76;68.87
79077;BME280;68477;42.698;23.342;2023-11-18T11:45:47;94853.84;;;3.88;69.37
79077;BME280;68477;42.698;23.342;2023-11-18T11:48:14;94851.53;;;3.85;69.58
79077;BME280;68477;42.698;23.342;2023-11-18T11:50:58;94848.56;;;4.07;68.75
79077;BME280;68477;42.698;23.342;2023-11-18T11:53:31;94836.03;;;3.84;69.66
79077;BME280;68477;42.698;23.342;2023-11-18T11:56:04;94860.97;;;3.86;69.39
79077;BME280;68477;42.698;23.342;2023-11-18T11:58:40;94843.66;;;3.95;68.47
79077;BME280;68477;42.698;23.342;2023-11-18T12:01:18;94838.06;;;3.99;68.98
79077;BME280;68477;42.698;23.342;2023-11-18T12:03:48;94850.16;;;4.18;69.01
79077;BME280;68477;42.698;23.342;2023-11-18T12:06:20;94854.94;;;4.23;68.15
79077;BME280;68477;42.698;23.342;2023-11-18T12:08:52;94859.84;;;3.98;68.45
79077;BME280;68477;42.698;23.342;2023-11-18T12:11:19;94846.50;;;3.74;69.43
79077;BME280;68477;42.698;23.342;2023-11-18T12:14:05;94850.19;;;3.62;69.73
79077;BME280;68477;42.698;23.342;2023-11-18T12:17:04;94853.16;;;3.86;68.27
79077;BME280;68477;42.698;23.342;2023-11-18T12:19:45;94859.59;;;3.72;70.03
79077;BME280;68477;42.698;23.342;2023-11-18T12:22:18;94858.91;;;3.90;69.11
79077;BME280;68477;42.698;23.342;2023-11-18T12:32:59;94842.66;;;4.05;68.62
79077;BME280;68477;42.698;23.342;2023-11-18T12:41:01;94843.47;;;4.16;68.68
79077;BME280;68477;42.698;23.342;2023-11-18T12:43:50;94858.75;;;4.28;67.94
79077;BME280;68477;42.698;23.342;2023-11-18T12:46:49;94856.78;;;4.03;68.61
79077;BME280;68477;42.698;23.342;2023-11-18T12:49:16;94852.75;;;3.81;68.88
79077;BME280;68477;42.698;23.342;2023-11-18T12:51:45;94861.69;;;4.06;68.65
79077;BME280;68477;42.698;23.342;2023-11-18T12:54:11;94874.75;;;3.96;68.42
79077;BME280;68477;42.698;23.342;2023-11-18T12:56:38;94854.66;;;3.89;69.46
79077;BME280;68477;42.698;23.342;2023-11-18T12:59:04;94862.16;;;3.92;69.95
79077;BME280;68477;42.698;23.342;2023-11-18T13:01:33;94868.13;;;3.74;70.74
79077;BME280;68477;42.698;23.342;2023-11-18T13:04:02;94872.59;;;3.82;70.01
79077;BME280;68477;42.698;23.342;2023-11-18T13:06:28;94867.81;;;3.77;70.00
79077;BME280;68477;42.698;23.342;2023-11-18T13:08:54;94847.41;;;3.83;70.02
79077;BME280;68477;42.698;23.342;2023-11-18T13:11:22;94864.28;;;4.16;68.97
79077;BME280;68477;42.698;23.342;2023-11-18T13:13:52;94864.38;;;3.87;70.25
79077;BME280;68477;42.698;23.342;2023-11-18T13:16:17;94875.84;;;3.94;70.40
79077;BME280;68477;42.698;23.342;2023-11-18T13:18:48;94867.91;;;3.95;70.77
79077;BME280;68477;42.698;23.342;2023-11-18T13:21:18;94882.44;;;3.98;70.64
79077;BME280;68477;42.698;23.342;2023-11-18T13:23:48;94884.25;;;3.78;71.37
79077;BME280;68477;42.698;23.342;2023-11-18T13:26:15;94880.81;;;3.87;70.94
79077;BME280;68477;42.698;23.342;2023-11-18T13:28:42;94895.78;;;3.66;72.48
79077;BME280;68477;42.698;23.342;2023-11-18T13:31:09;94889.84;;;3.73;71.97